Terminal Aerodrome Forecast
Issued by NWS Wilmington, NC

Home | Current Version | Previous Version | Text Only | Print | Product List | Glossary On
Versions: 1 2 3 4 5 6 7 8 9 10 11 12 13 14 15 16 17 18
000
FTUS42 KILM 040522
TAFMYR
TAF
KMYR 040522Z 0406/0506 21014KT P6SM FEW020 SCT050 SCT120
     FM040800 24007KT P6SM VCSH SCT015 SCT070 BKN100
     FM041400 26012G18KT P6SM SCT080 SCT100
     FM041800 23011G20KT P6SM VCSH SCT050 SCT250
     FM050000 22008KT P6SM FEW050 BKN250
      AMD LTD TO CLD VIS AND WIND TIL 041100=

USA.gov is the U.S. government's official web portal to all federal, state and local government web resources and services.